sensor_id;sensor_type;location;lat;lon;timestamp;temperature;humidity
45537;DHT22;31262;51.978;5.924;2022-09-16T00:00:14;19.70;60.50
45537;DHT22;31262;51.978;5.924;2022-09-16T00:02:39;19.70;60.50
45537;DHT22;31262;51.978;5.924;2022-09-16T00:05:06;19.70;60.50
45537;DHT22;31262;51.978;5.924;2022-09-16T00:07:32;19.70;60.40
45537;DHT22;31262;51.978;5.924;2022-09-16T00:09:58;19.70;60.50
45537;DHT22;31262;51.978;5.924;2022-09-16T00:12:23;19.80;60.30
45537;DHT22;31262;51.978;5.924;2022-09-16T00:14:51;19.80;60.30
45537;DHT22;31262;51.978;5.924;2022-09-16T00:17:17;19.70;60.30
45537;DHT22;31262;51.978;5.924;2022-09-16T00:19:42;19.50;60.60
45537;DHT22;31262;51.978;5.924;2022-09-16T00:22:08;19.50;60.90
45537;DHT22;31262;51.978;5.924;2022-09-16T00:24:34;19.40;61.10
45537;DHT22;31262;51.978;5.924;2022-09-16T00:26:59;19.40;61.20
45537;DHT22;31262;51.978;5.924;2022-09-16T00:29:25;19.40;61.30
45537;DHT22;31262;51.978;5.924;2022-09-16T00:31:50;19.40;61.30
45537;DHT22;31262;51.978;5.924;2022-09-16T00:34:16;19.40;61.40
45537;DHT22;31262;51.978;5.924;2022-09-16T00:36:41;19.30;61.30
45537;DHT22;31262;51.978;5.924;2022-09-16T00:39:07;19.30;61.50
45537;DHT22;31262;51.978;5.924;2022-09-16T00:41:33;19.40;61.50
45537;DHT22;31262;51.978;5.924;2022-09-16T00:44:06;19.40;61.30
45537;DHT22;31262;51.978;5.924;2022-09-16T00:46:52;19.40;61.20
45537;DHT22;31262;51.978;5.924;2022-09-16T00:49:28;19.30;61.30
45537;DHT22;31262;51.978;5.924;2022-09-16T00:51:59;19.40;61.10
45537;DHT22;31262;51.978;5.924;2022-09-16T00:54:26;19.40;61.30
45537;DHT22;31262;51.978;5.924;2022-09-16T00:56:54;19.40;61.30
45537;DHT22;31262;51.978;5.924;2022-09-16T00:59:24;19.30;61.30
45537;DHT22;31262;51.978;5.924;2022-09-16T01:01:51;19.30;61.30
45537;DHT22;31262;51.978;5.924;2022-09-16T01:04:25;19.30;61.50
45537;DHT22;31262;51.978;5.924;2022-09-16T01:06:52;19.40;61.50
45537;DHT22;31262;51.978;5.924;2022-09-16T01:09:21;19.40;61.50
45537;DHT22;31262;51.978;5.924;2022-09-16T01:11:47;19.40;61.50
45537;DHT22;31262;51.978;5.924;2022-09-16T01:14:13;19.40;61.40
45537;DHT22;31262;51.978;5.924;2022-09-16T01:20:20;19.50;61.20
45537;DHT22;31262;51.978;5.924;2022-09-16T01:39:30;19.50;61.60
45537;DHT22;31262;51.978;5.924;2022-09-16T01:44:52;19.20;61.90
45537;DHT22;31262;51.978;5.924;2022-09-16T01:47:55;19.30;62.20
45537;DHT22;31262;51.978;5.924;2022-09-16T01:50:27;19.40;61.70
45537;DHT22;31262;51.978;5.924;2022-09-16T01:55:59;19.40;61.80
45537;DHT22;31262;51.978;5.924;2022-09-16T02:01:07;19.40;61.90
45537;DHT22;31262;51.978;5.924;2022-09-16T02:03:38;19.40;61.90
45537;DHT22;31262;51.978;5.924;2022-09-16T02:06:08;19.40;61.80
45537;DHT22;31262;51.978;5.924;2022-09-16T02:08:40;19.40;61.80
45537;DHT22;31262;51.978;5.924;2022-09-16T02:11:09;19.40;61.70
45537;DHT22;31262;51.978;5.924;2022-09-16T02:13:51;19.40;61.80
45537;DHT22;31262;51.978;5.924;2022-09-16T02:16:24;19.40;61.60
45537;DHT22;31262;51.978;5.924;2022-09-16T02:18:56;19.40;61.70
45537;DHT22;31262;51.978;5.924;2022-09-16T02:21:27;19.40;61.90
45537;DHT22;31262;51.978;5.924;2022-09-16T02:23:58;19.40;61.90
45537;DHT22;31262;51.978;5.924;2022-09-16T02:26:28;19.40;61.90
45537;DHT22;31262;51.978;5.924;2022-09-16T02:28:56;19.40;61.70
45537;DHT22;31262;51.978;5.924;2022-09-16T02:31:31;19.40;61.80
45537;DHT22;31262;51.978;5.924;2022-09-16T02:34:05;19.40;61.80
45537;DHT22;31262;51.978;5.924;2022-09-16T02:36:33;19.40;61.90
45537;DHT22;31262;51.978;5.924;2022-09-16T02:39:05;19.40;62.00
45537;DHT22;31262;51.978;5.924;2022-09-16T02:41:33;19.40;61.90
45537;DHT22;31262;51.978;5.924;2022-09-16T02:44:00;19.40;61.90
45537;DHT22;31262;51.978;5.924;2022-09-16T02:49:42;19.40;61.90
45537;DHT22;31262;51.978;5.924;2022-09-16T02:52:22;19.40;61.70
45537;DHT22;31262;51.978;5.924;2022-09-16T02:54:56;19.40;61.90
45537;DHT22;31262;51.978;5.924;2022-09-16T02:57:25;19.40;61.70
45537;DHT22;31262;51.978;5.924;2022-09-16T02:59:51;19.30;61.80
45537;DHT22;31262;51.978;5.924;2022-09-16T03:02:17;19.20;61.90
45537;DHT22;31262;51.978;5.924;2022-09-16T03:04:43;19.20;62.00
45537;DHT22;31262;51.978;5.924;2022-09-16T03:07:10;19.20;62.10
45537;DHT22;31262;51.978;5.924;2022-09-16T03:09:42;19.20;62.10
45537;DHT22;31262;51.978;5.924;2022-09-16T03:15:09;19.30;62.10
45537;DHT22;31262;51.978;5.924;2022-09-16T03:18:46;19.20;62.20
45537;DHT22;31262;51.978;5.924;2022-09-16T03:31:44;19.10;62.30
45537;DHT22;31262;51.978;5.924;2022-09-16T03:34:30;19.10;62.40
45537;DHT22;31262;51.978;5.924;2022-09-16T03:37:00;19.10;62.20
45537;DHT22;31262;51.978;5.924;2022-09-16T03:39:27;19.10;62.40
45537;DHT22;31262;51.978;5.924;2022-09-16T03:41:53;19.00;62.40
45537;DHT22;31262;51.978;5.924;2022-09-16T03:44:20;19.00;62.40
45537;DHT22;31262;51.978;5.924;2022-09-16T03:46:45;19.00;62.40
45537;DHT22;31262;51.978;5.924;2022-09-16T03:49:11;19.00;62.40
45537;DHT22;31262;51.978;5.924;2022-09-16T03:51:37;19.00;62.30
45537;DHT22;31262;51.978;5.924;2022-09-16T03:54:03;19.00;62.20
45537;DHT22;31262;51.978;5.924;2022-09-16T03:56:29;19.00;62.20
45537;DHT22;31262;51.978;5.924;2022-09-16T03:58:55;18.90;62.40
45537;DHT22;31262;51.978;5.924;2022-09-16T04:01:21;18.80;62.50
45537;DHT22;31262;51.978;5.924;2022-09-16T04:03:47;18.80;62.60
45537;DHT22;31262;51.978;5.924;2022-09-16T04:06:12;18.80;62.90
45537;DHT22;31262;51.978;5.924;2022-09-16T04:08:38;18.80;62.90
45537;DHT22;31262;51.978;5.924;2022-09-16T04:11:05;18.80;62.80
45537;DHT22;31262;51.978;5.924;2022-09-16T04:13:32;18.80;62.70
45537;DHT22;31262;51.978;5.924;2022-09-16T04:15:59;18.80;62.90
45537;DHT22;31262;51.978;5.924;2022-09-16T04:18:24;18.80;62.90
45537;DHT22;31262;51.978;5.924;2022-09-16T04:20:55;18.80;62.90
45537;DHT22;31262;51.978;5.924;2022-09-16T04:23:26;18.80;62.80
45537;DHT22;31262;51.978;5.924;2022-09-16T04:26:00;18.80;62.90
45537;DHT22;31262;51.978;5.924;2022-09-16T04:28:27;18.90;63.00
45537;DHT22;31262;51.978;5.924;2022-09-16T04:30:54;18.80;63.80
45537;DHT22;31262;51.978;5.924;2022-09-16T04:33:30;18.80;63.10
45537;DHT22;31262;51.978;5.924;2022-09-16T04:36:13;18.80;62.90
45537;DHT22;31262;51.978;5.924;2022-09-16T04:38:40;18.60;62.90
45537;DHT22;31262;51.978;5.924;2022-09-16T04:41:15;18.50;63.40
45537;DHT22;31262;51.978;5.924;2022-09-16T04:43:42;18.40;63.70
45537;DHT22;31262;51.978;5.924;2022-09-16T04:46:08;18.30;63.90
45537;DHT22;31262;51.978;5.924;2022-09-16T04:48:34;18.20;64.10
45537;DHT22;31262;51.978;5.924;2022-09-16T04:51:05;18.00;64.50
45537;DHT22;31262;51.978;5.924;2022-09-16T04:53:32;17.90;64.70
45537;DHT22;31262;51.978;5.924;2022-09-16T04:56:04;17.80;65.00
45537;DHT22;31262;51.978;5.924;2022-09-16T04:58:30;17.70;65.20
45537;DHT22;31262;51.978;5.924;2022-09-16T05:01:01;17.60;65.40
45537;DHT22;31262;51.978;5.924;2022-09-16T05:03:27;17.50;65.40
45537;DHT22;31262;51.978;5.924;2022-09-16T05:05:52;17.40;65.40
45537;DHT22;31262;51.978;5.924;2022-09-16T05:08:18;17.40;65.60
45537;DHT22;31262;51.978;5.924;2022-09-16T05:10:43;17.30;65.60
45537;DHT22;31262;51.978;5.924;2022-09-16T05:13:09;17.30;65.80
45537;DHT22;31262;51.978;5.924;2022-09-16T05:15:35;17.20;65.90
45537;DHT22;31262;51.978;5.924;2022-09-16T05:18:00;17.20;65.90
45537;DHT22;31262;51.978;5.924;2022-09-16T05:20:26;17.20;66.20
45537;DHT22;31262;51.978;5.924;2022-09-16T05:22:51;17.10;66.40
45537;DHT22;31262;51.978;5.924;2022-09-16T05:25:17;17.10;66.50
45537;DHT22;31262;51.978;5.924;2022-09-16T05:27:43;17.00;66.60
45537;DHT22;31262;51.978;5.924;2022-09-16T05:30:09;17.00;66.60
45537;DHT22;31262;51.978;5.924;2022-09-16T05:32:34;17.00;66.80
45537;DHT22;31262;51.978;5.924;2022-09-16T05:35:00;16.90;66.90
45537;DHT22;31262;51.978;5.924;2022-09-16T05:37:26;16.90;66.90
45537;DHT22;31262;51.978;5.924;2022-09-16T05:39:51;16.90;66.90
45537;DHT22;31262;51.978;5.924;2022-09-16T05:42:17;16.90;66.90
45537;DHT22;31262;51.978;5.924;2022-09-16T05:44:42;16.90;67.00
45537;DHT22;31262;51.978;5.924;2022-09-16T05:47:08;16.90;67.00
45537;DHT22;31262;51.978;5.924;2022-09-16T05:49:33;16.90;67.00
45537;DHT22;31262;51.978;5.924;2022-09-16T05:51:59;16.90;67.00
45537;DHT22;31262;51.978;5.924;2022-09-16T05:54:24;16.90;67.00
45537;DHT22;31262;51.978;5.924;2022-09-16T05:56:50;16.80;66.90
45537;DHT22;31262;51.978;5.924;2022-09-16T05:59:16;16.90;67.00
45537;DHT22;31262;51.978;5.924;2022-09-16T06:01:43;16.80;67.00
45537;DHT22;31262;51.978;5.924;2022-09-16T06:04:11;16.70;67.10
45537;DHT22;31262;51.978;5.924;2022-09-16T06:06:41;16.80;67.10
45537;DHT22;31262;51.978;5.924;2022-09-16T06:09:08;16.70;67.10
45537;DHT22;31262;51.978;5.924;2022-09-16T06:11:37;16.70;67.10
45537;DHT22;31262;51.978;5.924;2022-09-16T06:14:03;16.70;67.00
45537;DHT22;31262;51.978;5.924;2022-09-16T06:16:30;16.70;67.00
45537;DHT22;31262;51.978;5.924;2022-09-16T06:19:02;16.70;67.00
45537;DHT22;31262;51.978;5.924;2022-09-16T06:21:28;16.70;67.10
45537;DHT22;31262;51.978;5.924;2022-09-16T06:23:55;16.70;67.20
45537;DHT22;31262;51.978;5.924;2022-09-16T06:26:22;16.70;67.40
45537;DHT22;31262;51.978;5.924;2022-09-16T06:28:49;16.80;67.30
45537;DHT22;31262;51.978;5.924;2022-09-16T06:31:20;16.80;67.20
45537;DHT22;31262;51.978;5.924;2022-09-16T06:33:46;16.80;67.10
45537;DHT22;31262;51.978;5.924;2022-09-16T06:36:20;16.80;67.10
45537;DHT22;31262;51.978;5.924;2022-09-16T06:38:46;16.80;67.10
45537;DHT22;31262;51.978;5.924;2022-09-16T06:41:13;16.70;67.40
45537;DHT22;31262;51.978;5.924;2022-09-16T06:43:39;16.70;67.40
45537;DHT22;31262;51.978;5.924;2022-09-16T06:46:07;16.80;67.50
45537;DHT22;31262;51.978;5.924;2022-09-16T06:48:45;16.70;67.60
45537;DHT22;31262;51.978;5.924;2022-09-16T06:51:15;16.80;67.90
45537;DHT22;31262;51.978;5.924;2022-09-16T06:53:42;16.80;67.90
45537;DHT22;31262;51.978;5.924;2022-09-16T06:56:10;16.80;67.80
45537;DHT22;31262;51.978;5.924;2022-09-16T06:58:38;16.80;67.90
45537;DHT22;31262;51.978;5.924;2022-09-16T07:01:17;16.80;68.00
45537;DHT22;31262;51.978;5.924;2022-09-16T07:03:48;16.90;67.80
45537;DHT22;31262;51.978;5.924;2022-09-16T07:06:15;16.90;68.00
45537;DHT22;31262;51.978;5.924;2022-09-16T07:08:41;16.90;68.30
45537;DHT22;31262;51.978;5.924;2022-09-16T07:11:21;16.80;68.30
45537;DHT22;31262;51.978;5.924;2022-09-16T07:13:47;16.90;68.20
45537;DHT22;31262;51.978;5.924;2022-09-16T07:16:16;16.90;68.40
45537;DHT22;31262;51.978;5.924;2022-09-16T07:18:42;16.90;68.40
45537;DHT22;31262;51.978;5.924;2022-09-16T07:21:11;16.90;68.40
45537;DHT22;31262;51.978;5.924;2022-09-16T07:23:38;17.00;68.40
45537;DHT22;31262;51.978;5.924;2022-09-16T07:26:06;17.00;68.30
45537;DHT22;31262;51.978;5.924;2022-09-16T07:28:33;17.00;68.20
45537;DHT22;31262;51.978;5.924;2022-09-16T07:31:04;17.00;68.10
45537;DHT22;31262;51.978;5.924;2022-09-16T07:33:31;17.10;68.20
45537;DHT22;31262;51.978;5.924;2022-09-16T07:35:59;17.20;68.20
45537;DHT22;31262;51.978;5.924;2022-09-16T07:38:31;17.10;68.20
45537;DHT22;31262;51.978;5.924;2022-09-16T07:41:27;17.20;68.10
45537;DHT22;31262;51.978;5.924;2022-09-16T07:43:54;17.10;67.70
45537;DHT22;31262;51.978;5.924;2022-09-16T07:46:24;17.10;67.90
45537;DHT22;31262;51.978;5.924;2022-09-16T07:48:50;17.20;67.80
45537;DHT22;31262;51.978;5.924;2022-09-16T07:51:21;17.20;67.80
45537;DHT22;31262;51.978;5.924;2022-09-16T07:53:51;17.20;67.80
45537;DHT22;31262;51.978;5.924;2022-09-16T07:56:20;17.20;68.00
45537;DHT22;31262;51.978;5.924;2022-09-16T07:58:47;17.20;67.80
45537;DHT22;31262;51.978;5.924;2022-09-16T08:01:15;17.20;67.80
45537;DHT22;31262;51.978;5.924;2022-09-16T08:03:41;17.40;67.30
45537;DHT22;31262;51.978;5.924;2022-09-16T08:06:10;17.40;67.10
45537;DHT22;31262;51.978;5.924;2022-09-16T08:08:37;17.40;66.80
45537;DHT22;31262;51.978;5.924;2022-09-16T08:11:03;17.40;66.70
45537;DHT22;31262;51.978;5.924;2022-09-16T08:13:30;17.50;66.60
45537;DHT22;31262;51.978;5.924;2022-09-16T08:16:01;17.60;66.40
45537;DHT22;31262;51.978;5.924;2022-09-16T08:18:28;17.60;66.70
45537;DHT22;31262;51.978;5.924;2022-09-16T08:20:53;17.70;65.90
45537;DHT22;31262;51.978;5.924;2022-09-16T08:23:19;17.70;66.00
45537;DHT22;31262;51.978;5.924;2022-09-16T08:25:44;17.70;65.80
45537;DHT22;31262;51.978;5.924;2022-09-16T08:28:13;17.80;65.60
45537;DHT22;31262;51.978;5.924;2022-09-16T08:30:39;17.90;64.80
45537;DHT22;31262;51.978;5.924;2022-09-16T08:33:05;18.00;64.40
45537;DHT22;31262;51.978;5.924;2022-09-16T08:35:31;18.20;64.00
45537;DHT22;31262;51.978;5.924;2022-09-16T08:37:58;18.40;63.90
45537;DHT22;31262;51.978;5.924;2022-09-16T08:40:24;18.60;63.30
45537;DHT22;31262;51.978;5.924;2022-09-16T08:45:45;19.30;62.00
45537;DHT22;31262;51.978;5.924;2022-09-16T08:50:51;19.50;61.40
45537;DHT22;31262;51.978;5.924;2022-09-16T08:53:25;19.70;60.40
45537;DHT22;31262;51.978;5.924;2022-09-16T08:55:54;20.00;60.10
45537;DHT22;31262;51.978;5.924;2022-09-16T08:58:25;20.30;59.20
45537;DHT22;31262;51.978;5.924;2022-09-16T09:01:03;20.70;58.30
45537;DHT22;31262;51.978;5.924;2022-09-16T09:03:36;21.00;56.90
45537;DHT22;31262;51.978;5.924;2022-09-16T09:06:07;21.10;55.50
45537;DHT22;31262;51.978;5.924;2022-09-16T09:11:41;21.00;55.50
45537;DHT22;31262;51.978;5.924;2022-09-16T09:30:43;21.30;51.10
45537;DHT22;31262;51.978;5.924;2022-09-16T09:39:04;21.70;49.40
45537;DHT22;31262;51.978;5.924;2022-09-16T09:42:17;21.80;48.60
45537;DHT22;31262;51.978;5.924;2022-09-16T09:44:58;21.90;48.10
45537;DHT22;31262;51.978;5.924;2022-09-16T09:47:29;22.20;48.10
45537;DHT22;31262;51.978;5.924;2022-09-16T09:50:22;22.30;47.90
45537;DHT22;31262;51.978;5.924;2022-09-16T09:52:55;22.60;46.90
45537;DHT22;31262;51.978;5.924;2022-09-16T09:55:22;22.70;46.60
45537;DHT22;31262;51.978;5.924;2022-09-16T10:00:21;23.00;45.60
45537;DHT22;31262;51.978;5.924;2022-09-16T10:02:47;23.20;44.90
45537;DHT22;31262;51.978;5.924;2022-09-16T10:05:24;23.40;44.80
45537;DHT22;31262;51.978;5.924;2022-09-16T10:07:52;23.70;43.90
45537;DHT22;31262;51.978;5.924;2022-09-16T10:10:22;23.80;43.10
45537;DHT22;31262;51.978;5.924;2022-09-16T10:12:48;23.80;42.60
45537;DHT22;31262;51.978;5.924;2022-09-16T10:15:29;23.90;43.40
45537;DHT22;31262;51.978;5.924;2022-09-16T10:17:58;24.00;43.60
45537;DHT22;31262;51.978;5.924;2022-09-16T10:20:30;23.80;43.30
45537;DHT22;31262;51.978;5.924;2022-09-16T10:23:21;23.80;43.10
45537;DHT22;31262;51.978;5.924;2022-09-16T10:25:46;23.80;43.60
45537;DHT22;31262;51.978;5.924;2022-09-16T10:28:21;23.90;43.00
45537;DHT22;31262;51.978;5.924;2022-09-16T10:30:52;24.20;42.70
45537;DHT22;31262;51.978;5.924;2022-09-16T10:33:31;24.30;42.80
45537;DHT22;31262;51.978;5.924;2022-09-16T10:36:06;24.50;41.90
45537;DHT22;31262;51.978;5.924;2022-09-16T10:38:56;24.60;41.30
45537;DHT22;31262;51.978;5.924;2022-09-16T10:41:28;24.70;41.20
45537;DHT22;31262;51.978;5.924;2022-09-16T10:43:59;24.90;40.20
45537;DHT22;31262;51.978;5.924;2022-09-16T10:46:27;25.10;39.70
45537;DHT22;31262;51.978;5.924;2022-09-16T10:49:00;25.20;40.40
45537;DHT22;31262;51.978;5.924;2022-09-16T10:51:31;25.30;40.10
45537;DHT22;31262;51.978;5.924;2022-09-16T10:54:01;25.40;39.60
45537;DHT22;31262;51.978;5.924;2022-09-16T10:56:33;25.50;39.30
45537;DHT22;31262;51.978;5.924;2022-09-16T10:59:08;25.50;38.10
45537;DHT22;31262;51.978;5.924;2022-09-16T11:01:47;25.40;38.10
45537;DHT22;31262;51.978;5.924;2022-09-16T11:04:28;25.30;38.10
45537;DHT22;31262;51.978;5.924;2022-09-16T11:10:01;25.40;38.00
45537;DHT22;31262;51.978;5.924;2022-09-16T11:15:34;25.30;38.40
45537;DHT22;31262;51.978;5.924;2022-09-16T11:24:10;24.50;40.20
45537;DHT22;31262;51.978;5.924;2022-09-16T11:55:13;25.20;37.10
45537;DHT22;31262;51.978;5.924;2022-09-16T11:57:47;25.40;36.40
45537;DHT22;31262;51.978;5.924;2022-09-16T12:00:16;25.30;36.10
45537;DHT22;31262;51.978;5.924;2022-09-16T12:02:54;25.20;35.80
45537;DHT22;31262;51.978;5.924;2022-09-16T12:08:20;24.80;36.50
45537;DHT22;31262;51.978;5.924;2022-09-16T12:11:26;24.80;35.80
45537;DHT22;31262;51.978;5.924;2022-09-16T12:14:04;24.90;35.40
45537;DHT22;31262;51.978;5.924;2022-09-16T12:19:03;25.10;35.00
45537;DHT22;31262;51.978;5.924;2022-09-16T12:21:45;25.20;35.10
45537;DHT22;31262;51.978;5.924;2022-09-16T12:24:38;25.40;34.60
45537;DHT22;31262;51.978;5.924;2022-09-16T12:30:12;25.50;34.70
45537;DHT22;31262;51.978;5.924;2022-09-16T12:35:38;25.80;35.30
45537;DHT22;31262;51.978;5.924;2022-09-16T12:38:15;25.90;34.70
45537;DHT22;31262;51.978;5.924;2022-09-16T12:46:54;26.30;35.90
45537;DHT22;31262;51.978;5.924;2022-09-16T12:50:00;26.40;36.40
45537;DHT22;31262;51.978;5.924;2022-09-16T12:53:44;26.50;36.70
45537;DHT22;31262;51.978;5.924;2022-09-16T12:59:03;26.40;37.20
45537;DHT22;31262;51.978;5.924;2022-09-16T13:01:35;26.30;37.20
45537;DHT22;31262;51.978;5.924;2022-09-16T13:04:18;26.20;37.60
45537;DHT22;31262;51.978;5.924;2022-09-16T13:06:47;26.10;37.90
45537;DHT22;31262;51.978;5.924;2022-09-16T13:11:59;25.60;38.60
45537;DHT22;31262;51.978;5.924;2022-09-16T13:14:31;25.80;38.40
45537;DHT22;31262;51.978;5.924;2022-09-16T13:16:59;25.70;38.50
45537;DHT22;31262;51.978;5.924;2022-09-16T13:19:33;25.70;38.00
45537;DHT22;31262;51.978;5.924;2022-09-16T13:24:36;25.50;37.80
45537;DHT22;31262;51.978;5.924;2022-09-16T13:27:28;25.30;38.50
45537;DHT22;31262;51.978;5.924;2022-09-16T13:32:56;25.00;39.30
45537;DHT22;31262;51.978;5.924;2022-09-16T13:40:38;24.80;39.40
45537;DHT22;31262;51.978;5.924;2022-09-16T13:48:22;24.60;40.10
45537;DHT22;31262;51.978;5.924;2022-09-16T13:50:59;24.50;40.30
45537;DHT22;31262;51.978;5.924;2022-09-16T13:55:53;24.30;40.60
45537;DHT22;31262;51.978;5.924;2022-09-16T13:58:33;24.30;40.60
45537;DHT22;31262;51.978;5.924;2022-09-16T14:01:17;24.30;40.80
45537;DHT22;31262;51.978;5.924;2022-09-16T14:09:23;23.80;39.90
45537;DHT22;31262;51.978;5.924;2022-09-16T14:12:35;23.60;40.20
45537;DHT22;31262;51.978;5.924;2022-09-16T14:14:50;23.50;40.10
45537;DHT22;31262;51.978;5.924;2022-09-16T14:17:21;23.20;40.90
45537;DHT22;31262;51.978;5.924;2022-09-16T14:19:49;23.10;41.30
45537;DHT22;31262;51.978;5.924;2022-09-16T14:22:19;22.90;41.80
45537;DHT22;31262;51.978;5.924;2022-09-16T14:24:50;22.80;42.30
45537;DHT22;31262;51.978;5.924;2022-09-16T14:30:01;22.60;42.90
45537;DHT22;31262;51.978;5.924;2022-09-16T14:32:29;22.60;43.00
45537;DHT22;31262;51.978;5.924;2022-09-16T14:35:00;22.60;43.30
45537;DHT22;31262;51.978;5.924;2022-09-16T14:37:28;22.70;43.40
45537;DHT22;31262;51.978;5.924;2022-09-16T14:40:02;22.60;43.60
45537;DHT22;31262;51.978;5.924;2022-09-16T14:42:28;22.50;44.30
45537;DHT22;31262;51.978;5.924;2022-09-16T14:44:55;22.50;44.40
45537;DHT22;31262;51.978;5.924;2022-09-16T14:47:31;22.50;44.40
45537;DHT22;31262;51.978;5.924;2022-09-16T14:50:07;22.50;44.80
45537;DHT22;31262;51.978;5.924;2022-09-16T14:52:36;22.60;44.80
45537;DHT22;31262;51.978;5.924;2022-09-16T14:55:17;22.50;46.90
45537;DHT22;31262;51.978;5.924;2022-09-16T14:57:44;22.40;46.70
45537;DHT22;31262;51.978;5.924;2022-09-16T15:00:12;22.20;46.90
45537;DHT22;31262;51.978;5.924;2022-09-16T15:02:43;22.10;46.70
45537;DHT22;31262;51.978;5.924;2022-09-16T15:05:33;22.10;47.30
45537;DHT22;31262;51.978;5.924;2022-09-16T15:10:34;21.80;48.00
45537;DHT22;31262;51.978;5.924;2022-09-16T15:13:22;21.70;48.50
45537;DHT22;31262;51.978;5.924;2022-09-16T15:15:54;21.60;48.70
45537;DHT22;31262;51.978;5.924;2022-09-16T15:18:21;21.50;49.60
45537;DHT22;31262;51.978;5.924;2022-09-16T15:21:02;21.40;49.90
45537;DHT22;31262;51.978;5.924;2022-09-16T15:23:29;21.50;50.10
45537;DHT22;31262;51.978;5.924;2022-09-16T15:25:57;21.40;50.90
45537;DHT22;31262;51.978;5.924;2022-09-16T15:28:24;21.50;51.40
45537;DHT22;31262;51.978;5.924;2022-09-16T15:30:53;21.40;50.80
45537;DHT22;31262;51.978;5.924;2022-09-16T15:35:58;21.20;51.00
45537;DHT22;31262;51.978;5.924;2022-09-16T15:38:26;21.10;51.90
45537;DHT22;31262;51.978;5.924;2022-09-16T15:41:11;21.00;51.90
45537;DHT22;31262;51.978;5.924;2022-09-16T15:43:44;21.00;51.60
45537;DHT22;31262;51.978;5.924;2022-09-16T15:46:19;21.00;52.40
45537;DHT22;31262;51.978;5.924;2022-09-16T15:48:51;21.00;51.70
45537;DHT22;31262;51.978;5.924;2022-09-16T15:53:52;20.80;51.60
45537;DHT22;31262;51.978;5.924;2022-09-16T15:56:40;20.70;51.10
45537;DHT22;31262;51.978;5.924;2022-09-16T15:59:41;20.70;50.50
45537;DHT22;31262;51.978;5.924;2022-09-16T16:04:50;20.70;49.50
45537;DHT22;31262;51.978;5.924;2022-09-16T16:07:39;20.70;49.10
45537;DHT22;31262;51.978;5.924;2022-09-16T16:10:24;20.80;49.00
45537;DHT22;31262;51.978;5.924;2022-09-16T16:12:51;20.50;49.30
45537;DHT22;31262;51.978;5.924;2022-09-16T16:15:22;20.50;49.30
45537;DHT22;31262;51.978;5.924;2022-09-16T16:17:51;20.50;48.60
45537;DHT22;31262;51.978;5.924;2022-09-16T16:20:19;20.50;48.60
45537;DHT22;31262;51.978;5.924;2022-09-16T16:22:45;20.40;48.70
45537;DHT22;31262;51.978;5.924;2022-09-16T16:25:11;20.50;48.70
45537;DHT22;31262;51.978;5.924;2022-09-16T16:27:38;20.50;48.60
45537;DHT22;31262;51.978;5.924;2022-09-16T16:30:05;20.50;48.70
45537;DHT22;31262;51.978;5.924;2022-09-16T16:32:31;20.50;48.50
45537;DHT22;31262;51.978;5.924;2022-09-16T16:34:57;20.50;48.40
45537;DHT22;31262;51.978;5.924;2022-09-16T16:37:24;20.50;48.70
45537;DHT22;31262;51.978;5.924;2022-09-16T16:39:50;20.50;48.80
45537;DHT22;31262;51.978;5.924;2022-09-16T16:42:16;20.50;49.00
45537;DHT22;31262;51.978;5.924;2022-09-16T16:44:42;20.40;48.90
45537;DHT22;31262;51.978;5.924;2022-09-16T16:47:08;20.50;48.90
45537;DHT22;31262;51.978;5.924;2022-09-16T16:49:35;20.40;48.90
45537;DHT22;31262;51.978;5.924;2022-09-16T16:52:02;20.40;49.10
45537;DHT22;31262;51.978;5.924;2022-09-16T16:54:28;20.40;48.90
45537;DHT22;31262;51.978;5.924;2022-09-16T16:56:54;20.40;49.10
45537;DHT22;31262;51.978;5.924;2022-09-16T16:59:20;20.40;49.30
45537;DHT22;31262;51.978;5.924;2022-09-16T17:01:50;20.30;49.70
45537;DHT22;31262;51.978;5.924;2022-09-16T17:04:16;20.40;49.70
45537;DHT22;31262;51.978;5.924;2022-09-16T17:06:42;20.30;49.60
45537;DHT22;31262;51.978;5.924;2022-09-16T17:09:08;20.20;50.40
45537;DHT22;31262;51.978;5.924;2022-09-16T17:11:35;20.30;51.40
45537;DHT22;31262;51.978;5.924;2022-09-16T17:14:03;20.40;51.20
45537;DHT22;31262;51.978;5.924;2022-09-16T17:16:29;20.40;50.20
45537;DHT22;31262;51.978;5.924;2022-09-16T17:18:57;20.40;49.40
45537;DHT22;31262;51.978;5.924;2022-09-16T17:21:25;20.30;49.10
45537;DHT22;31262;51.978;5.924;2022-09-16T17:23:51;20.20;49.30
45537;DHT22;31262;51.978;5.924;2022-09-16T17:26:18;20.10;49.20
45537;DHT22;31262;51.978;5.924;2022-09-16T17:28:45;19.90;48.70
45537;DHT22;31262;51.978;5.924;2022-09-16T17:31:21;19.70;49.40
45537;DHT22;31262;51.978;5.924;2022-09-16T17:34:00;19.60;49.20
45537;DHT22;31262;51.978;5.924;2022-09-16T17:36:34;19.50;49.30
45537;DHT22;31262;51.978;5.924;2022-09-16T17:39:03;19.40;49.30
45537;DHT22;31262;51.978;5.924;2022-09-16T17:41:29;19.30;48.90
45537;DHT22;31262;51.978;5.924;2022-09-16T17:43:56;19.30;49.10
45537;DHT22;31262;51.978;5.924;2022-09-16T17:46:23;19.20;49.40
45537;DHT22;31262;51.978;5.924;2022-09-16T17:48:52;19.20;49.90
45537;DHT22;31262;51.978;5.924;2022-09-16T17:51:18;19.10;50.50
45537;DHT22;31262;51.978;5.924;2022-09-16T17:53:43;19.00;50.70
45537;DHT22;31262;51.978;5.924;2022-09-16T17:56:14;18.90;51.30
45537;DHT22;31262;51.978;5.924;2022-09-16T17:58:42;18.90;51.40
45537;DHT22;31262;51.978;5.924;2022-09-16T18:01:14;18.80;51.80
45537;DHT22;31262;51.978;5.924;2022-09-16T18:03:41;18.80;52.20
45537;DHT22;31262;51.978;5.924;2022-09-16T18:06:10;18.70;52.40
45537;DHT22;31262;51.978;5.924;2022-09-16T18:08:36;18.70;52.60
45537;DHT22;31262;51.978;5.924;2022-09-16T18:11:03;18.60;53.00
45537;DHT22;31262;51.978;5.924;2022-09-16T18:13:29;18.60;53.20
45537;DHT22;31262;51.978;5.924;2022-09-16T18:15:55;18.50;53.40
45537;DHT22;31262;51.978;5.924;2022-09-16T18:18:21;18.40;53.70
45537;DHT22;31262;51.978;5.924;2022-09-16T18:20:54;18.40;54.20
45537;DHT22;31262;51.978;5.924;2022-09-16T18:23:20;18.50;54.60
45537;DHT22;31262;51.978;5.924;2022-09-16T18:25:46;18.40;54.60
45537;DHT22;31262;51.978;5.924;2022-09-16T18:28:12;18.50;54.40
45537;DHT22;31262;51.978;5.924;2022-09-16T18:30:38;18.50;54.50
45537;DHT22;31262;51.978;5.924;2022-09-16T18:33:04;18.50;54.70
45537;DHT22;31262;51.978;5.924;2022-09-16T18:35:30;18.40;54.50
45537;DHT22;31262;51.978;5.924;2022-09-16T18:37:56;18.50;54.40
45537;DHT22;31262;51.978;5.924;2022-09-16T18:40:21;18.50;54.30
45537;DHT22;31262;51.978;5.924;2022-09-16T18:42:47;18.50;54.40
45537;DHT22;31262;51.978;5.924;2022-09-16T18:45:13;18.40;54.40
45537;DHT22;31262;51.978;5.924;2022-09-16T18:47:39;18.40;55.10
45537;DHT22;31262;51.978;5.924;2022-09-16T18:50:05;18.40;54.60